sensor_id;sensor_type;location;lat;lon;timestamp;P1;durP1;ratioP1;P2;durP2;ratioP2
6661;SDS011;3367;48.714;8.994;2022-12-18T00:00:07;54.27;;;23.90;;
6661;SDS011;3367;48.714;8.994;2022-12-18T00:02:34;54.67;;;22.80;;
6661;SDS011;3367;48.714;8.994;2022-12-18T00:05:01;56.70;;;24.13;;
6661;SDS011;3367;48.714;8.994;2022-12-18T00:07:28;53.23;;;21.60;;
6661;SDS011;3367;48.714;8.994;2022-12-18T00:09:54;59.97;;;22.30;;
6661;SDS011;3367;48.714;8.994;2022-12-18T00:12:21;51.93;;;22.20;;
6661;SDS011;3367;48.714;8.994;2022-12-18T00:14:48;51.03;;;24.10;;
6661;SDS011;3367;48.714;8.994;2022-12-18T00:17:16;53.60;;;23.60;;
6661;SDS011;3367;48.714;8.994;2022-12-18T00:19:42;51.40;;;22.97;;
6661;SDS011;3367;48.714;8.994;2022-12-18T00:22:09;45.50;;;24.27;;
6661;SDS011;3367;48.714;8.994;2022-12-18T00:24:36;55.80;;;24.07;;
6661;SDS011;3367;48.714;8.994;2022-12-18T00:27:02;67.03;;;25.77;;
6661;SDS011;3367;48.714;8.994;2022-12-18T00:29:29;53.70;;;24.67;;
6661;SDS011;3367;48.714;8.994;2022-12-18T00:31:56;57.57;;;24.03;;
6661;SDS011;3367;48.714;8.994;2022-12-18T00:34:24;52.10;;;24.07;;
6661;SDS011;3367;48.714;8.994;2022-12-18T00:36:51;54.87;;;23.33;;
6661;SDS011;3367;48.714;8.994;2022-12-18T00:39:18;49.20;;;23.53;;
6661;SDS011;3367;48.714;8.994;2022-12-18T00:41:44;48.83;;;23.07;;
6661;SDS011;3367;48.714;8.994;2022-12-18T00:44:29;52.93;;;23.67;;
6661;SDS011;3367;48.714;8.994;2022-12-18T00:46:55;49.20;;;21.73;;
6661;SDS011;3367;48.714;8.994;2022-12-18T00:49:23;54.40;;;23.37;;
6661;SDS011;3367;48.714;8.994;2022-12-18T00:51:50;54.30;;;23.27;;
6661;SDS011;3367;48.714;8.994;2022-12-18T00:54:17;54.63;;;22.40;;
6661;SDS011;3367;48.714;8.994;2022-12-18T00:56:44;44.23;;;21.23;;
6661;SDS011;3367;48.714;8.994;2022-12-18T00:59:10;48.87;;;21.30;;
6661;SDS011;3367;48.714;8.994;2022-12-18T01:01:37;54.33;;;23.37;;
6661;SDS011;3367;48.714;8.994;2022-12-18T01:04:04;53.10;;;21.63;;
6661;SDS011;3367;48.714;8.994;2022-12-18T01:06:32;54.13;;;22.73;;
6661;SDS011;3367;48.714;8.994;2022-12-18T01:08:59;53.97;;;21.80;;
6661;SDS011;3367;48.714;8.994;2022-12-18T01:11:26;47.23;;;18.90;;
6661;SDS011;3367;48.714;8.994;2022-12-18T01:13:53;46.63;;;23.50;;
6661;SDS011;3367;48.714;8.994;2022-12-18T01:16:20;52.47;;;21.90;;
6661;SDS011;3367;48.714;8.994;2022-12-18T01:18:50;41.13;;;19.80;;
6661;SDS011;3367;48.714;8.994;2022-12-18T01:21:17;59.60;;;24.53;;
6661;SDS011;3367;48.714;8.994;2022-12-18T01:23:45;56.60;;;23.20;;
6661;SDS011;3367;48.714;8.994;2022-12-18T01:26:13;53.80;;;23.40;;
6661;SDS011;3367;48.714;8.994;2022-12-18T01:28:41;42.47;;;20.80;;
6661;SDS011;3367;48.714;8.994;2022-12-18T01:31:13;42.90;;;19.40;;
6661;SDS011;3367;48.714;8.994;2022-12-18T01:33:42;49.80;;;20.50;;
6661;SDS011;3367;48.714;8.994;2022-12-18T01:36:14;45.47;;;19.07;;
6661;SDS011;3367;48.714;8.994;2022-12-18T01:38:42;43.43;;;19.20;;
6661;SDS011;3367;48.714;8.994;2022-12-18T01:41:10;48.30;;;20.20;;
6661;SDS011;3367;48.714;8.994;2022-12-18T01:43:41;47.33;;;21.67;;
6661;SDS011;3367;48.714;8.994;2022-12-18T01:46:09;42.37;;;20.40;;
6661;SDS011;3367;48.714;8.994;2022-12-18T01:48:36;49.10;;;20.23;;
6661;SDS011;3367;48.714;8.994;2022-12-18T01:51:04;46.43;;;22.00;;
6661;SDS011;3367;48.714;8.994;2022-12-18T01:53:33;43.43;;;20.50;;
6661;SDS011;3367;48.714;8.994;2022-12-18T01:55:59;50.17;;;20.93;;
6661;SDS011;3367;48.714;8.994;2022-12-18T01:58:30;49.80;;;20.67;;
6661;SDS011;3367;48.714;8.994;2022-12-18T02:01:05;60.37;;;23.13;;
6661;SDS011;3367;48.714;8.994;2022-12-18T02:03:32;49.50;;;21.90;;
6661;SDS011;3367;48.714;8.994;2022-12-18T02:05:59;53.50;;;22.37;;
6661;SDS011;3367;48.714;8.994;2022-12-18T02:08:34;50.37;;;23.30;;
6661;SDS011;3367;48.714;8.994;2022-12-18T02:11:06;49.73;;;22.30;;
6661;SDS011;3367;48.714;8.994;2022-12-18T02:13:43;54.50;;;24.77;;
6661;SDS011;3367;48.714;8.994;2022-12-18T02:16:19;57.60;;;24.53;;
6661;SDS011;3367;48.714;8.994;2022-12-18T02:18:50;52.53;;;23.00;;
6661;SDS011;3367;48.714;8.994;2022-12-18T02:21:24;45.87;;;21.80;;
6661;SDS011;3367;48.714;8.994;2022-12-18T02:24:01;50.50;;;21.33;;
6661;SDS011;3367;48.714;8.994;2022-12-18T02:26:41;50.37;;;21.20;;
6661;SDS011;3367;48.714;8.994;2022-12-18T02:29:13;46.67;;;20.83;;
6661;SDS011;3367;48.714;8.994;2022-12-18T02:31:44;51.13;;;22.57;;
6661;SDS011;3367;48.714;8.994;2022-12-18T02:34:15;45.40;;;20.77;;
6661;SDS011;3367;48.714;8.994;2022-12-18T02:36:44;55.93;;;21.47;;
6661;SDS011;3367;48.714;8.994;2022-12-18T02:39:14;40.87;;;18.30;;
6661;SDS011;3367;48.714;8.994;2022-12-18T02:41:43;47.67;;;18.63;;
6661;SDS011;3367;48.714;8.994;2022-12-18T02:44:11;47.73;;;20.07;;
6661;SDS011;3367;48.714;8.994;2022-12-18T02:46:40;39.93;;;17.97;;
6661;SDS011;3367;48.714;8.994;2022-12-18T02:49:17;36.03;;;18.47;;
6661;SDS011;3367;48.714;8.994;2022-12-18T02:51:53;45.20;;;18.00;;
6661;SDS011;3367;48.714;8.994;2022-12-18T02:54:31;51.10;;;19.07;;
6661;SDS011;3367;48.714;8.994;2022-12-18T02:57:08;40.73;;;18.30;;
6661;SDS011;3367;48.714;8.994;2022-12-18T02:59:41;43.43;;;19.77;;
6661;SDS011;3367;48.714;8.994;2022-12-18T03:02:17;41.80;;;18.20;;
6661;SDS011;3367;48.714;8.994;2022-12-18T03:04:49;43.83;;;18.10;;
6661;SDS011;3367;48.714;8.994;2022-12-18T03:07:25;37.93;;;18.27;;
6661;SDS011;3367;48.714;8.994;2022-12-18T03:09:58;48.90;;;19.33;;
6661;SDS011;3367;48.714;8.994;2022-12-18T03:12:29;47.57;;;17.53;;
6661;SDS011;3367;48.714;8.994;2022-12-18T03:14:59;43.67;;;19.03;;
6661;SDS011;3367;48.714;8.994;2022-12-18T03:17:30;39.50;;;17.87;;
6661;SDS011;3367;48.714;8.994;2022-12-18T03:20:00;41.33;;;17.20;;
6661;SDS011;3367;48.714;8.994;2022-12-18T03:22:32;46.37;;;17.80;;
6661;SDS011;3367;48.714;8.994;2022-12-18T03:25:00;49.47;;;19.47;;
6661;SDS011;3367;48.714;8.994;2022-12-18T03:27:31;38.07;;;19.10;;
6661;SDS011;3367;48.714;8.994;2022-12-18T03:30:02;34.03;;;16.73;;
6661;SDS011;3367;48.714;8.994;2022-12-18T03:32:33;45.83;;;18.30;;
6661;SDS011;3367;48.714;8.994;2022-12-18T03:35:06;30.17;;;15.30;;
6661;SDS011;3367;48.714;8.994;2022-12-18T03:37:36;35.83;;;16.00;;
6661;SDS011;3367;48.714;8.994;2022-12-18T03:40:04;41.03;;;19.23;;
6661;SDS011;3367;48.714;8.994;2022-12-18T03:42:35;39.20;;;17.10;;
6661;SDS011;3367;48.714;8.994;2022-12-18T03:45:11;39.47;;;18.20;;
6661;SDS011;3367;48.714;8.994;2022-12-18T03:47:47;43.53;;;18.10;;
6661;SDS011;3367;48.714;8.994;2022-12-18T03:50:21;39.87;;;17.20;;
6661;SDS011;3367;48.714;8.994;2022-12-18T03:52:54;45.47;;;16.50;;
6661;SDS011;3367;48.714;8.994;2022-12-18T03:55:26;43.47;;;17.73;;
6661;SDS011;3367;48.714;8.994;2022-12-18T03:57:59;32.70;;;16.43;;
6661;SDS011;3367;48.714;8.994;2022-12-18T04:00:29;36.17;;;16.80;;
6661;SDS011;3367;48.714;8.994;2022-12-18T04:02:57;37.83;;;17.43;;
6661;SDS011;3367;48.714;8.994;2022-12-18T04:05:27;36.80;;;16.63;;
6661;SDS011;3367;48.714;8.994;2022-12-18T04:07:56;31.83;;;15.63;;
6661;SDS011;3367;48.714;8.994;2022-12-18T04:10:23;36.53;;;16.33;;
6661;SDS011;3367;48.714;8.994;2022-12-18T04:12:50;36.77;;;16.10;;
6661;SDS011;3367;48.714;8.994;2022-12-18T04:15:18;36.77;;;16.10;;
6661;SDS011;3367;48.714;8.994;2022-12-18T04:17:47;46.90;;;16.80;;
6661;SDS011;3367;48.714;8.994;2022-12-18T04:20:15;42.10;;;16.37;;
6661;SDS011;3367;48.714;8.994;2022-12-18T04:22:42;43.27;;;16.83;;
6661;SDS011;3367;48.714;8.994;2022-12-18T04:25:09;38.53;;;15.53;;
6661;SDS011;3367;48.714;8.994;2022-12-18T04:27:37;41.27;;;16.77;;
6661;SDS011;3367;48.714;8.994;2022-12-18T04:30:04;36.37;;;17.20;;
6661;SDS011;3367;48.714;8.994;2022-12-18T04:32:34;32.83;;;15.30;;
6661;SDS011;3367;48.714;8.994;2022-12-18T04:35:01;40.80;;;16.40;;
6661;SDS011;3367;48.714;8.994;2022-12-18T04:37:29;40.37;;;16.23;;
6661;SDS011;3367;48.714;8.994;2022-12-18T04:39:56;41.43;;;16.77;;
6661;SDS011;3367;48.714;8.994;2022-12-18T04:42:22;35.73;;;17.70;;
6661;SDS011;3367;48.714;8.994;2022-12-18T04:44:49;37.50;;;16.83;;
6661;SDS011;3367;48.714;8.994;2022-12-18T04:47:16;45.87;;;18.20;;
6661;SDS011;3367;48.714;8.994;2022-12-18T04:49:44;45.43;;;19.03;;
6661;SDS011;3367;48.714;8.994;2022-12-18T04:52:11;45.07;;;19.60;;
6661;SDS011;3367;48.714;8.994;2022-12-18T04:54:37;41.07;;;17.40;;
6661;SDS011;3367;48.714;8.994;2022-12-18T04:57:04;49.67;;;18.97;;
6661;SDS011;3367;48.714;8.994;2022-12-18T04:59:31;59.77;;;20.67;;
6661;SDS011;3367;48.714;8.994;2022-12-18T05:01:58;54.57;;;20.07;;
6661;SDS011;3367;48.714;8.994;2022-12-18T05:04:25;54.97;;;20.33;;
6661;SDS011;3367;48.714;8.994;2022-12-18T05:06:53;60.77;;;20.40;;
6661;SDS011;3367;48.714;8.994;2022-12-18T05:09:20;55.33;;;20.20;;
6661;SDS011;3367;48.714;8.994;2022-12-18T05:11:46;55.40;;;20.00;;
6661;SDS011;3367;48.714;8.994;2022-12-18T05:14:13;52.17;;;19.07;;
6661;SDS011;3367;48.714;8.994;2022-12-18T05:16:41;52.70;;;19.77;;
6661;SDS011;3367;48.714;8.994;2022-12-18T05:19:08;57.07;;;19.60;;
6661;SDS011;3367;48.714;8.994;2022-12-18T05:21:34;52.80;;;20.27;;
6661;SDS011;3367;48.714;8.994;2022-12-18T05:24:03;62.70;;;21.03;;
6661;SDS011;3367;48.714;8.994;2022-12-18T05:26:30;51.90;;;21.53;;
6661;SDS011;3367;48.714;8.994;2022-12-18T05:28:57;55.93;;;20.30;;
6661;SDS011;3367;48.714;8.994;2022-12-18T05:31:24;56.03;;;20.80;;
6661;SDS011;3367;48.714;8.994;2022-12-18T05:33:50;63.73;;;22.70;;
6661;SDS011;3367;48.714;8.994;2022-12-18T05:36:17;56.17;;;20.00;;
6661;SDS011;3367;48.714;8.994;2022-12-18T05:38:44;57.57;;;21.00;;
6661;SDS011;3367;48.714;8.994;2022-12-18T05:41:12;66.73;;;22.37;;
6661;SDS011;3367;48.714;8.994;2022-12-18T05:43:39;51.90;;;20.20;;
6661;SDS011;3367;48.714;8.994;2022-12-18T05:46:06;48.90;;;19.30;;
6661;SDS011;3367;48.714;8.994;2022-12-18T05:48:35;55.23;;;18.87;;
6661;SDS011;3367;48.714;8.994;2022-12-18T05:51:05;59.40;;;22.20;;
6661;SDS011;3367;48.714;8.994;2022-12-18T05:53:33;44.30;;;18.50;;
6661;SDS011;3367;48.714;8.994;2022-12-18T05:56:02;45.50;;;18.90;;
6661;SDS011;3367;48.714;8.994;2022-12-18T05:58:31;45.77;;;18.27;;
6661;SDS011;3367;48.714;8.994;2022-12-18T06:01:05;41.50;;;16.13;;
6661;SDS011;3367;48.714;8.994;2022-12-18T06:03:33;49.17;;;19.77;;
6661;SDS011;3367;48.714;8.994;2022-12-18T06:06:00;35.70;;;16.07;;
6661;SDS011;3367;48.714;8.994;2022-12-18T06:08:26;41.20;;;16.67;;
6661;SDS011;3367;48.714;8.994;2022-12-18T06:10:53;37.57;;;15.70;;
6661;SDS011;3367;48.714;8.994;2022-12-18T06:13:20;42.60;;;16.70;;
6661;SDS011;3367;48.714;8.994;2022-12-18T06:15:49;37.40;;;16.30;;
6661;SDS011;3367;48.714;8.994;2022-12-18T06:18:15;37.10;;;16.40;;
6661;SDS011;3367;48.714;8.994;2022-12-18T06:20:42;41.23;;;17.13;;
6661;SDS011;3367;48.714;8.994;2022-12-18T06:23:09;33.50;;;13.87;;
6661;SDS011;3367;48.714;8.994;2022-12-18T06:25:37;41.13;;;15.93;;
6661;SDS011;3367;48.714;8.994;2022-12-18T06:28:04;40.77;;;16.63;;
6661;SDS011;3367;48.714;8.994;2022-12-18T06:30:31;41.20;;;17.50;;
6661;SDS011;3367;48.714;8.994;2022-12-18T06:33:00;40.20;;;16.40;;
6661;SDS011;3367;48.714;8.994;2022-12-18T06:35:26;36.90;;;15.60;;
6661;SDS011;3367;48.714;8.994;2022-12-18T06:37:53;40.13;;;17.00;;
6661;SDS011;3367;48.714;8.994;2022-12-18T06:40:20;48.83;;;18.10;;
6661;SDS011;3367;48.714;8.994;2022-12-18T06:42:47;45.23;;;17.97;;
6661;SDS011;3367;48.714;8.994;2022-12-18T06:45:14;40.23;;;16.83;;
6661;SDS011;3367;48.714;8.994;2022-12-18T06:47:40;31.73;;;16.07;;
6661;SDS011;3367;48.714;8.994;2022-12-18T06:50:09;37.43;;;16.47;;
6661;SDS011;3367;48.714;8.994;2022-12-18T06:52:35;45.60;;;18.40;;
6661;SDS011;3367;48.714;8.994;2022-12-18T06:55:04;37.83;;;16.67;;
6661;SDS011;3367;48.714;8.994;2022-12-18T06:57:35;42.57;;;18.17;;
6661;SDS011;3367;48.714;8.994;2022-12-18T07:00:02;32.97;;;15.10;;
6661;SDS011;3367;48.714;8.994;2022-12-18T07:02:30;36.87;;;16.80;;
6661;SDS011;3367;48.714;8.994;2022-12-18T07:04:57;31.83;;;14.67;;
6661;SDS011;3367;48.714;8.994;2022-12-18T07:07:25;36.67;;;18.13;;
6661;SDS011;3367;48.714;8.994;2022-12-18T07:09:52;39.70;;;14.70;;
6661;SDS011;3367;48.714;8.994;2022-12-18T07:12:19;31.53;;;13.10;;
6661;SDS011;3367;48.714;8.994;2022-12-18T07:14:45;29.70;;;15.63;;
6661;SDS011;3367;48.714;8.994;2022-12-18T07:17:12;33.77;;;15.73;;
6661;SDS011;3367;48.714;8.994;2022-12-18T07:19:39;36.23;;;16.53;;
6661;SDS011;3367;48.714;8.994;2022-12-18T07:22:06;38.90;;;16.77;;
6661;SDS011;3367;48.714;8.994;2022-12-18T07:24:34;45.67;;;16.00;;
6661;SDS011;3367;48.714;8.994;2022-12-18T07:27:01;42.03;;;15.57;;
6661;SDS011;3367;48.714;8.994;2022-12-18T07:29:27;38.27;;;15.30;;
6661;SDS011;3367;48.714;8.994;2022-12-18T07:31:54;37.47;;;15.17;;
6661;SDS011;3367;48.714;8.994;2022-12-18T07:34:21;41.77;;;17.07;;
6661;SDS011;3367;48.714;8.994;2022-12-18T07:36:48;36.60;;;16.00;;
6661;SDS011;3367;48.714;8.994;2022-12-18T07:39:14;40.27;;;16.40;;
6661;SDS011;3367;48.714;8.994;2022-12-18T07:41:43;35.87;;;16.80;;
6661;SDS011;3367;48.714;8.994;2022-12-18T07:44:29;37.17;;;13.97;;
6661;SDS011;3367;48.714;8.994;2022-12-18T07:46:56;38.10;;;17.57;;
6661;SDS011;3367;48.714;8.994;2022-12-18T07:49:23;37.27;;;16.37;;
6661;SDS011;3367;48.714;8.994;2022-12-18T07:51:50;41.80;;;18.47;;
6661;SDS011;3367;48.714;8.994;2022-12-18T07:54:16;35.47;;;15.23;;
6661;SDS011;3367;48.714;8.994;2022-12-18T07:59:21;49.67;;;16.77;;
6661;SDS011;3367;48.714;8.994;2022-12-18T08:01:48;37.77;;;16.00;;
6661;SDS011;3367;48.714;8.994;2022-12-18T08:04:15;50.50;;;18.10;;
6661;SDS011;3367;48.714;8.994;2022-12-18T08:06:42;40.87;;;17.50;;
6661;SDS011;3367;48.714;8.994;2022-12-18T08:09:09;36.60;;;17.93;;
6661;SDS011;3367;48.714;8.994;2022-12-18T08:11:36;40.80;;;17.90;;
6661;SDS011;3367;48.714;8.994;2022-12-18T08:14:04;52.30;;;19.27;;
6661;SDS011;3367;48.714;8.994;2022-12-18T08:16:31;40.00;;;17.90;;
6661;SDS011;3367;48.714;8.994;2022-12-18T08:18:58;37.47;;;17.37;;
6661;SDS011;3367;48.714;8.994;2022-12-18T08:21:25;44.70;;;17.90;;
6661;SDS011;3367;48.714;8.994;2022-12-18T08:23:53;40.77;;;16.33;;
6661;SDS011;3367;48.714;8.994;2022-12-18T08:26:22;47.10;;;19.40;;
6661;SDS011;3367;48.714;8.994;2022-12-18T08:28:49;46.53;;;17.97;;
6661;SDS011;3367;48.714;8.994;2022-12-18T08:31:20;44.20;;;19.27;;
6661;SDS011;3367;48.714;8.994;2022-12-18T08:33:48;40.50;;;19.07;;
6661;SDS011;3367;48.714;8.994;2022-12-18T08:36:18;43.83;;;19.07;;
6661;SDS011;3367;48.714;8.994;2022-12-18T08:38:50;37.53;;;17.63;;
6661;SDS011;3367;48.714;8.994;2022-12-18T08:41:17;44.70;;;17.80;;
6661;SDS011;3367;48.714;8.994;2022-12-18T08:43:44;39.00;;;18.33;;
6661;SDS011;3367;48.714;8.994;2022-12-18T08:46:31;45.00;;;20.27;;
6661;SDS011;3367;48.714;8.994;2022-12-18T08:49:00;42.30;;;19.37;;
6661;SDS011;3367;48.714;8.994;2022-12-18T08:51:27;48.67;;;18.73;;
6661;SDS011;3367;48.714;8.994;2022-12-18T08:53:54;40.47;;;19.23;;
6661;SDS011;3367;48.714;8.994;2022-12-18T08:56:20;40.63;;;19.30;;
6661;SDS011;3367;48.714;8.994;2022-12-18T08:58:47;39.90;;;18.30;;
6661;SDS011;3367;48.714;8.994;2022-12-18T09:01:18;38.10;;;18.87;;
6661;SDS011;3367;48.714;8.994;2022-12-18T09:03:46;37.67;;;17.90;;
6661;SDS011;3367;48.714;8.994;2022-12-18T09:06:13;48.43;;;20.27;;
6661;SDS011;3367;48.714;8.994;2022-12-18T09:08:41;47.00;;;19.23;;
6661;SDS011;3367;48.714;8.994;2022-12-18T09:11:10;46.13;;;19.50;;
6661;SDS011;3367;48.714;8.994;2022-12-18T09:13:39;37.93;;;16.50;;
6661;SDS011;3367;48.714;8.994;2022-12-18T09:16:06;38.63;;;16.77;;
6661;SDS011;3367;48.714;8.994;2022-12-18T09:18:33;35.47;;;15.70;;
6661;SDS011;3367;48.714;8.994;2022-12-18T09:21:06;37.80;;;16.03;;
6661;SDS011;3367;48.714;8.994;2022-12-18T09:23:34;36.17;;;16.00;;
6661;SDS011;3367;48.714;8.994;2022-12-18T09:26:01;35.40;;;15.57;;
6661;SDS011;3367;48.714;8.994;2022-12-18T09:28:28;38.43;;;16.90;;
6661;SDS011;3367;48.714;8.994;2022-12-18T09:30:55;30.00;;;15.03;;
6661;SDS011;3367;48.714;8.994;2022-12-18T09:33:22;37.03;;;17.93;;
6661;SDS011;3367;48.714;8.994;2022-12-18T09:35:48;38.40;;;16.53;;
6661;SDS011;3367;48.714;8.994;2022-12-18T09:38:17;32.77;;;15.17;;
6661;SDS011;3367;48.714;8.994;2022-12-18T09:40:47;30.27;;;15.97;;
6661;SDS011;3367;48.714;8.994;2022-12-18T09:43:17;30.27;;;14.57;;
6661;SDS011;3367;48.714;8.994;2022-12-18T09:45:46;37.57;;;15.63;;
6661;SDS011;3367;48.714;8.994;2022-12-18T09:48:18;29.53;;;15.40;;
6661;SDS011;3367;48.714;8.994;2022-12-18T09:50:48;33.13;;;16.40;;
6661;SDS011;3367;48.714;8.994;2022-12-18T09:53:20;34.97;;;15.20;;
6661;SDS011;3367;48.714;8.994;2022-12-18T09:55:52;39.27;;;16.23;;
6661;SDS011;3367;48.714;8.994;2022-12-18T09:58:25;31.67;;;16.83;;
6661;SDS011;3367;48.714;8.994;2022-12-18T10:00:56;32.23;;;15.73;;
6661;SDS011;3367;48.714;8.994;2022-12-18T10:03:23;40.87;;;17.50;;
6661;SDS011;3367;48.714;8.994;2022-12-18T10:05:53;27.70;;;15.00;;
6661;SDS011;3367;48.714;8.994;2022-12-18T10:08:32;33.97;;;14.80;;
6661;SDS011;3367;48.714;8.994;2022-12-18T10:11:13;32.57;;;15.83;;
6661;SDS011;3367;48.714;8.994;2022-12-18T10:13:58;39.70;;;17.27;;
6661;SDS011;3367;48.714;8.994;2022-12-18T10:16:34;32.33;;;16.47;;
6661;SDS011;3367;48.714;8.994;2022-12-18T10:19:11;33.60;;;15.50;;
6661;SDS011;3367;48.714;8.994;2022-12-18T10:21:51;35.50;;;16.17;;
6661;SDS011;3367;48.714;8.994;2022-12-18T10:24:31;28.33;;;14.57;;
6661;SDS011;3367;48.714;8.994;2022-12-18T10:27:09;31.67;;;14.80;;
6661;SDS011;3367;48.714;8.994;2022-12-18T10:29:40;37.17;;;15.97;;
6661;SDS011;3367;48.714;8.994;2022-12-18T10:32:08;27.90;;;14.57;;
6661;SDS011;3367;48.714;8.994;2022-12-18T10:34:45;31.57;;;15.27;;
6661;SDS011;3367;48.714;8.994;2022-12-18T10:37:14;31.60;;;15.83;;
6661;SDS011;3367;48.714;8.994;2022-12-18T10:39:45;26.40;;;13.20;;
6661;SDS011;3367;48.714;8.994;2022-12-18T10:42:16;36.30;;;15.93;;
6661;SDS011;3367;48.714;8.994;2022-12-18T10:44:44;31.73;;;14.50;;
6661;SDS011;3367;48.714;8.994;2022-12-18T10:47:11;35.07;;;15.80;;
6661;SDS011;3367;48.714;8.994;2022-12-18T10:49:42;32.43;;;15.20;;
6661;SDS011;3367;48.714;8.994;2022-12-18T10:52:14;32.87;;;14.47;;
6661;SDS011;3367;48.714;8.994;2022-12-18T10:54:49;35.77;;;16.03;;
6661;SDS011;3367;48.714;8.994;2022-12-18T10:57:28;36.23;;;16.20;;
6661;SDS011;3367;48.714;8.994;2022-12-18T10:59:58;37.57;;;16.33;;
6661;SDS011;3367;48.714;8.994;2022-12-18T11:02:39;32.30;;;15.37;;
6661;SDS011;3367;48.714;8.994;2022-12-18T11:07:49;32.37;;;14.97;;
6661;SDS011;3367;48.714;8.994;2022-12-18T11:10:20;31.33;;;15.07;;
6661;SDS011;3367;48.714;8.994;2022-12-18T11:12:52;31.57;;;15.73;;
6661;SDS011;3367;48.714;8.994;2022-12-18T11:15:19;30.50;;;15.70;;
6661;SDS011;3367;48.714;8.994;2022-12-18T11:17:49;28.03;;;16.73;;
6661;SDS011;3367;48.714;8.994;2022-12-18T11:20:21;29.60;;;14.23;;
6661;SDS011;3367;48.714;8.994;2022-12-18T11:22:54;31.27;;;15.27;;
6661;SDS011;3367;48.714;8.994;2022-12-18T11:25:24;30.60;;;15.33;;
6661;SDS011;3367;48.714;8.994;2022-12-18T11:27:52;29.60;;;14.73;;
6661;SDS011;3367;48.714;8.994;2022-12-18T11:30:21;37.13;;;16.83;;
6661;SDS011;3367;48.714;8.994;2022-12-18T11:32:50;32.83;;;15.23;;
6661;SDS011;3367;48.714;8.994;2022-12-18T11:35:19;32.30;;;14.37;;
6661;SDS011;3367;48.714;8.994;2022-12-18T11:37:50;32.93;;;17.53;;
6661;SDS011;3367;48.714;8.994;2022-12-18T11:40:25;31.80;;;15.17;;
6661;SDS011;3367;48.714;8.994;2022-12-18T11:42:58;32.00;;;15.90;;
6661;SDS011;3367;48.714;8.994;2022-12-18T11:45:30;30.47;;;16.27;;
6661;SDS011;3367;48.714;8.994;2022-12-18T11:48:02;32.70;;;16.27;;
6661;SDS011;3367;48.714;8.994;2022-12-18T11:50:39;35.50;;;16.30;;
6661;SDS011;3367;48.714;8.994;2022-12-18T11:53:11;35.50;;;17.93;;
6661;SDS011;3367;48.714;8.994;2022-12-18T11:55:41;32.27;;;16.07;;
6661;SDS011;3367;48.714;8.994;2022-12-18T11:58:18;35.37;;;15.50;;
6661;SDS011;3367;48.714;8.994;2022-12-18T12:00:54;28.83;;;14.70;;
6661;SDS011;3367;48.714;8.994;2022-12-18T12:03:42;33.00;;;15.50;;
6661;SDS011;3367;48.714;8.994;2022-12-18T12:06:20;34.43;;;16.00;;
6661;SDS011;3367;48.714;8.994;2022-12-18T12:08:54;35.47;;;16.33;;
6661;SDS011;3367;48.714;8.994;2022-12-18T12:11:31;30.80;;;14.40;;
6661;SDS011;3367;48.714;8.994;2022-12-18T12:14:08;29.80;;;14.67;;
6661;SDS011;3367;48.714;8.994;2022-12-18T12:16:46;35.47;;;17.50;;
6661;SDS011;3367;48.714;8.994;2022-12-18T12:19:24;36.73;;;15.63;;
6661;SDS011;3367;48.714;8.994;2022-12-18T12:22:03;36.10;;;16.73;;
6661;SDS011;3367;48.714;8.994;2022-12-18T12:24:37;34.57;;;16.13;;
6661;SDS011;3367;48.714;8.994;2022-12-18T12:27:18;34.43;;;16.63;;
6661;SDS011;3367;48.714;8.994;2022-12-18T12:29:55;33.37;;;16.57;;
6661;SDS011;3367;48.714;8.994;2022-12-18T12:32:39;38.27;;;17.17;;
6661;SDS011;3367;48.714;8.994;2022-12-18T12:35:15;32.10;;;15.30;;
6661;SDS011;3367;48.714;8.994;2022-12-18T12:37:54;32.30;;;15.33;;
6661;SDS011;3367;48.714;8.994;2022-12-18T12:40:29;31.90;;;16.93;;
6661;SDS011;3367;48.714;8.994;2022-12-18T12:43:02;30.93;;;16.70;;
6661;SDS011;3367;48.714;8.994;2022-12-18T12:45:41;33.57;;;18.07;;
6661;SDS011;3367;48.714;8.994;2022-12-18T12:48:15;34.50;;;15.90;;
6661;SDS011;3367;48.714;8.994;2022-12-18T12:50:46;33.67;;;16.63;;
6661;SDS011;3367;48.714;8.994;2022-12-18T12:53:18;35.50;;;17.10;;
6661;SDS011;3367;48.714;8.994;2022-12-18T12:55:51;36.70;;;15.00;;
6661;SDS011;3367;48.714;8.994;2022-12-18T12:58:22;41.97;;;18.33;;
6661;SDS011;3367;48.714;8.994;2022-12-18T13:00:58;33.87;;;17.37;;
6661;SDS011;3367;48.714;8.994;2022-12-18T13:03:39;32.70;;;15.60;;
6661;SDS011;3367;48.714;8.994;2022-12-18T13:06:12;33.10;;;16.90;;
6661;SDS011;3367;48.714;8.994;2022-12-18T13:08:52;31.97;;;16.37;;
6661;SDS011;3367;48.714;8.994;2022-12-18T13:11:31;50.90;;;23.27;;
6661;SDS011;3367;48.714;8.994;2022-12-18T13:14:24;41.20;;;17.87;;
6661;SDS011;3367;48.714;8.994;2022-12-18T13:20:02;29.77;;;15.57;;
6661;SDS011;3367;48.714;8.994;2022-12-18T13:22:35;33.70;;;15.73;;
6661;SDS011;3367;48.714;8.994;2022-12-18T13:28:00;37.30;;;17.53;;
6661;SDS011;3367;48.714;8.994;2022-12-18T13:30:45;38.97;;;17.17;;
6661;SDS011;3367;48.714;8.994;2022-12-18T13:33:38;84.97;;;30.40;;
6661;SDS011;3367;48.714;8.994;2022-12-18T13:36:12;35.87;;;16.90;;
6661;SDS011;3367;48.714;8.994;2022-12-18T13:45:42;41.03;;;18.60;;
6661;SDS011;3367;48.714;8.994;2022-12-18T13:48:19;36.80;;;16.70;;
6661;SDS011;3367;48.714;8.994;2022-12-18T13:50:48;34.10;;;16.17;;
6661;SDS011;3367;48.714;8.994;2022-12-18T13:53:21;37.57;;;16.30;;
6661;SDS011;3367;48.714;8.994;2022-12-18T13:55:51;36.53;;;16.97;;
6661;SDS011;3367;48.714;8.994;2022-12-18T13:58:17;33.70;;;15.13;;
6661;SDS011;3367;48.714;8.994;2022-12-18T14:00:46;37.93;;;17.70;;
6661;SDS011;3367;48.714;8.994;2022-12-18T14:03:17;39.43;;;19.17;;
6661;SDS011;3367;48.714;8.994;2022-12-18T14:05:45;41.13;;;17.83;;
6661;SDS011;3367;48.714;8.994;2022-12-18T14:08:18;32.37;;;15.93;;
6661;SDS011;3367;48.714;8.994;2022-12-18T14:10:46;36.20;;;17.23;;
6661;SDS011;3367;48.714;8.994;2022-12-18T14:13:17;36.73;;;17.13;;
6661;SDS011;3367;48.714;8.994;2022-12-18T14:15:50;36.73;;;17.00;;
6661;SDS011;3367;48.714;8.994;2022-12-18T14:18:19;40.80;;;18.60;;
6661;SDS011;3367;48.714;8.994;2022-12-18T14:20:49;42.53;;;19.40;;
6661;SDS011;3367;48.714;8.994;2022-12-18T14:23:31;42.13;;;19.83;;
6661;SDS011;3367;48.714;8.994;2022-12-18T14:25:59;36.50;;;18.37;;
6661;SDS011;3367;48.714;8.994;2022-12-18T14:28:27;47.37;;;19.83;;
6661;SDS011;3367;48.714;8.994;2022-12-18T14:30:56;41.30;;;19.30;;
6661;SDS011;3367;48.714;8.994;2022-12-18T14:33:23;39.83;;;18.40;;
6661;SDS011;3367;48.714;8.994;2022-12-18T14:35:53;42.33;;;18.00;;
6661;SDS011;3367;48.714;8.994;2022-12-18T14:38:24;44.70;;;18.87;;
6661;SDS011;3367;48.714;8.994;2022-12-18T14:40:54;36.13;;;17.13;;
6661;SDS011;3367;48.714;8.994;2022-12-18T14:43:22;41.63;;;18.43;;
6661;SDS011;3367;48.714;8.994;2022-12-18T14:45:49;38.27;;;18.20;;
6661;SDS011;3367;48.714;8.994;2022-12-18T14:48:19;36.53;;;17.60;;
6661;SDS011;3367;48.714;8.994;2022-12-18T14:50:54;45.37;;;18.93;;
6661;SDS011;3367;48.714;8.994;2022-12-18T14:53:32;41.57;;;19.43;;
6661;SDS011;3367;48.714;8.994;2022-12-18T14:56:00;37.90;;;17.83;;
6661;SDS011;3367;48.714;8.994;2022-12-18T14:58:28;42.80;;;17.00;;
6661;SDS011;3367;48.714;8.994;2022-12-18T15:00:55;41.23;;;18.67;;
6661;SDS011;3367;48.714;8.994;2022-12-18T15:03:23;40.77;;;19.50;;
6661;SDS011;3367;48.714;8.994;2022-12-18T15:05:50;47.20;;;19.67;;
6661;SDS011;3367;48.714;8.994;2022-12-18T15:08:28;41.47;;;20.53;;
6661;SDS011;3367;48.714;8.994;2022-12-18T15:10:57;54.13;;;20.30;;
6661;SDS011;3367;48.714;8.994;2022-12-18T15:13:24;46.20;;;19.93;;
6661;SDS011;3367;48.714;8.994;2022-12-18T15:15:51;47.33;;;20.33;;
6661;SDS011;3367;48.714;8.994;2022-12-18T15:18:19;44.10;;;17.60;;
6661;SDS011;3367;48.714;8.994;2022-12-18T15:20:51;53.77;;;19.97;;
6661;SDS011;3367;48.714;8.994;2022-12-18T15:23:20;51.17;;;20.90;;